Time;durP1;ratioP1;P1;durP2;ratioP2;P2;SDS_P1;SDS_P2;PMS_P1;PMS_P2;Temp;Humidity;BMP_temperature;BMP_pressure;BME280_temperature;BME280_humidity;BME280_pressure;Samples;Min_cycle;Max_cycle;Signal;HPM_P1;HPM_P2
2021/10/30 00:02:00;;;;;;;41.65;26.00;;;;;;;13.96;45.64;100857.56;4954866;28;98137;-80
2021/10/30 00:04:27;;;;;;;42.63;26.63;;;;;;;14.06;45.35;100855.31;4956785;28;97875;-80
2021/10/30 00:06:54;;;;;;;43.08;26.00;;;;;;;14.23;44.97;100866.00;4949960;28;98552;-79
2021/10/30 00:09:21;;;;;;;42.03;25.10;;;;;;;13.98;45.55;100873.41;4948201;28;97661;-81
2021/10/30 00:11:49;;;;;;;43.78;25.75;;;;;;;13.87;46.05;100860.63;4954336;28;100951;-80
2021/10/30 00:14:16;;;;;;;41.20;26.95;;;;;;;14.06;45.38;100852.66;4951841;28;98881;-80
2021/10/30 00:16:43;;;;;;;45.80;25.80;;;;;;;14.18;45.24;100857.38;4950956;28;97219;-80
2021/10/30 00:19:09;;;;;;;42.85;26.85;;;;;;;14.24;45.39;100861.56;4952998;28;97190;-82
2021/10/30 00:21:36;;;;;;;47.17;25.65;;;;;;;14.15;45.25;100860.19;4953323;28;98056;-80
2021/10/30 00:24:03;;;;;;;40.40;26.23;;;;;;;14.27;44.95;100858.72;4952008;28;97554;-80
2021/10/30 00:26:30;;;;;;;45.67;27.00;;;;;;;14.23;45.44;100867.78;4955321;28;97834;-81
2021/10/30 00:28:59;;;;;;;43.15;25.75;;;;;;;14.15;45.30;100869.97;4951021;28;96978;-80
2021/10/30 00:31:25;;;;;;;45.40;26.25;;;;;;;14.27;45.20;100864.03;4955576;28;98632;-81
2021/10/30 00:33:52;;;;;;;44.90;25.98;;;;;;;14.18;45.04;100865.34;4958997;28;101839;-80
2021/10/30 00:36:18;;;;;;;44.85;27.52;;;;;;;14.34;44.87;100858.34;4963286;28;96893;-80
2021/10/30 00:38:45;;;;;;;44.05;26.95;;;;;;;14.25;45.05;100866.78;4955787;28;98485;-81
2021/10/30 00:41:12;;;;;;;42.80;26.90;;;;;;;14.29;45.11;100855.06;4952496;28;97814;-81
2021/10/30 00:43:38;;;;;;;45.55;28.10;;;;;;;14.26;45.05;100862.31;4953247;28;97614;-79
2021/10/30 00:46:06;;;;;;;40.70;26.70;;;;;;;14.19;45.32;100861.75;4955004;28;97706;-80
2021/10/30 00:48:33;;;;;;;46.85;27.35;;;;;;;14.25;44.94;100852.63;4952643;28;96913;-81
2021/10/30 00:51:01;;;;;;;40.70;26.23;;;;;;;14.22;45.13;100853.66;4953295;28;97894;-80
2021/10/30 00:53:32;;;;;;;44.35;27.77;;;;;;;14.13;45.42;100854.09;4952430;28;99172;-80
2021/10/30 00:56:01;;;;;;;44.47;26.95;;;;;;;14.17;45.42;100846.84;4952986;28;96860;-80
2021/10/30 00:58:31;;;;;;;44.50;26.33;;;;;;;14.37;45.07;100849.38;4956074;28;96864;-81
2021/10/30 01:00:58;;;;;;;42.30;26.75;;;;;;;14.26;45.25;100851.69;4955613;28;99239;-80
2021/10/30 01:03:27;;;;;;;43.40;27.25;;;;;;;14.28;45.10;100853.34;4959524;28;100864;-80
2021/10/30 01:05:53;;;;;;;43.70;26.88;;;;;;;14.18;45.65;100846.72;4959749;28;96732;-81
2021/10/30 01:08:22;;;;;;;44.30;27.67;;;;;;;14.17;45.32;100837.06;4960961;28;96960;-79
2021/10/30 01:10:48;;;;;;;39.05;26.13;;;;;;;14.10;45.77;100840.97;4959686;28;100805;-80
2021/10/30 01:13:15;;;;;;;44.65;28.52;;;;;;;13.99;46.08;100848.56;4961244;28;97780;-80
2021/10/30 01:15:43;;;;;;;47.13;28.17;;;;;;;14.06;46.04;100847.34;4960825;28;98772;-80
2021/10/30 01:18:10;;;;;;;46.72;28.02;;;;;;;14.30;45.29;100853.28;4955461;28;97615;-80
2021/10/30 01:20:38;;;;;;;46.63;27.98;;;;;;;14.10;45.69;100840.09;4959235;28;99227;-80
2021/10/30 01:23:04;;;;;;;46.83;28.52;;;;;;;14.09;45.80;100841.03;4965060;28;97962;-80
2021/10/30 01:25:31;;;;;;;44.75;27.25;;;;;;;14.12;45.69;100830.22;4963595;28;96776;-80
2021/10/30 01:28:01;;;;;;;50.15;28.17;;;;;;;14.17;45.59;100833.53;4961005;28;96877;-80
2021/10/30 01:30:28;;;;;;;49.05;28.48;;;;;;;14.29;45.72;100835.59;4944069;28;98870;-78
2021/10/30 01:32:57;;;;;;;43.05;27.75;;;;;;;14.10;45.97;100843.63;4964294;28;98165;-79
2021/10/30 01:35:31;;;;;;;44.40;27.00;;;;;;;14.13;45.77;100823.97;4964492;28;98765;-79
2021/10/30 01:38:00;;;;;;;44.35;28.08;;;;;;;14.28;45.79;100833.88;4963452;28;96888;-80
2021/10/30 01:40:27;;;;;;;46.28;28.67;;;;;;;14.22;45.72;100828.88;4959982;28;99438;-80
2021/10/30 01:42:56;;;;;;;46.90;28.67;;;;;;;14.10;46.03;100830.34;4961097;28;102231;-80
2021/10/30 01:45:23;;;;;;;44.45;28.33;;;;;;;13.93;46.43;100832.91;4961270;28;97732;-79
2021/10/30 01:47:49;;;;;;;49.67;28.80;;;;;;;14.10;46.06;100832.13;4958880;28;96822;-80
2021/10/30 01:50:16;;;;;;;47.00;28.75;;;;;;;14.04;46.17;100829.75;4956900;28;98380;-79
2021/10/30 01:52:42;;;;;;;48.33;29.15;;;;;;;14.16;45.69;100838.00;4958726;28;100260;-78
2021/10/30 01:55:11;;;;;;;46.75;28.77;;;;;;;14.03;46.00;100830.69;4963538;28;96937;-80
2021/10/30 01:57:37;;;;;;;47.55;28.67;;;;;;;14.02;46.47;100840.47;4964253;28;96873;-80
2021/10/30 02:00:05;;;;;;;46.25;28.25;;;;;;;13.76;46.76;100839.03;4964738;28;97858;-80
2021/10/30 02:02:31;;;;;;;46.88;29.13;;;;;;;13.67;47.16;100849.22;4976163;28;98132;-81
2021/10/30 02:04:58;;;;;;;46.78;28.27;;;;;;;13.71;46.83;100833.09;4971282;28;96608;-80
2021/10/30 02:07:24;;;;;;;46.92;28.33;;;;;;;13.53;47.32;100839.25;4969991;28;96671;-80
2021/10/30 02:09:54;;;;;;;44.13;29.08;;;;;;;13.78;46.84;100834.53;4968425;28;99120;-80
2021/10/30 02:12:22;;;;;;;48.53;28.25;;;;;;;13.85;46.76;100833.28;4967427;28;97756;-81
2021/10/30 02:14:49;;;;;;;46.20;28.95;;;;;;;13.90;46.59;100822.47;4972482;28;96839;-81
2021/10/30 02:17:15;;;;;;;53.70;29.00;;;;;;;13.80;46.79;100819.38;4972430;28;97760;-79
2021/10/30 02:19:42;;;;;;;47.40;28.92;;;;;;;13.76;46.99;100824.91;4971640;28;100423;-81
2021/10/30 02:22:08;;;;;;;46.58;29.10;;;;;;;14.01;46.04;100820.13;4965642;28;100230;-80
2021/10/30 02:24:35;;;;;;;50.55;29.42;;;;;;;13.85;46.58;100816.47;4968336;28;96512;-81
2021/10/30 02:27:01;;;;;;;45.45;27.60;;;;;;;13.77;46.82;100816.88;4966466;28;97707;-80
2021/10/30 02:29:29;;;;;;;45.72;27.77;;;;;;;13.82;46.79;100808.69;4968662;28;99258;-79
2021/10/30 02:31:56;;;;;;;42.50;26.85;;;;;;;13.72;46.93;100820.69;4970944;28;98859;-81
2021/10/30 02:34:23;;;;;;;41.85;27.73;;;;;;;13.81;46.67;100818.44;4974359;28;96634;-79
2021/10/30 02:36:49;;;;;;;49.58;27.95;;;;;;;13.74;46.58;100821.44;4975894;28;97941;-81
2021/10/30 02:39:16;;;;;;;49.47;28.35;;;;;;;13.71;46.89;100822.47;4977606;28;98199;-81
2021/10/30 02:41:42;;;;;;;46.10;28.40;;;;;;;13.77;46.89;100826.63;4967928;28;98342;-82
2021/10/30 02:44:09;;;;;;;46.30;27.90;;;;;;;13.70;47.10;100831.38;4966120;28;97979;-82
2021/10/30 02:46:37;;;;;;;42.42;26.73;;;;;;;13.77;46.91;100826.63;4972149;28;97371;-79
2021/10/30 02:49:04;;;;;;;46.42;27.30;;;;;;;13.60;47.16;100818.56;4971632;28;99577;-81
2021/10/30 02:51:30;;;;;;;45.60;27.83;;;;;;;13.52;47.40;100826.94;4966085;28;97457;-81
2021/10/30 02:53:57;;;;;;;47.22;28.15;;;;;;;13.53;47.79;100836.59;4952737;28;97139;-80
2021/10/30 02:56:23;;;;;;;45.92;27.83;;;;;;;13.60;47.36;100832.72;4955390;28;96865;-81
2021/10/30 02:58:50;;;;;;;46.08;27.98;;;;;;;13.66;47.47;100839.53;4950737;28;100972;-80
2021/10/30 03:01:16;;;;;;;44.97;27.35;;;;;;;13.62;47.38;100838.81;4955807;28;98856;-80
2021/10/30 03:03:44;;;;;;;44.90;27.88;;;;;;;13.92;46.61;100836.50;4957843;28;96998;-80
2021/10/30 03:06:11;;;;;;;45.08;27.05;;;;;;;13.87;46.85;100834.06;4962455;28;96635;-81
2021/10/30 03:08:37;;;;;;;48.75;27.88;;;;;;;13.84;47.00;100842.22;4954675;28;97962;-81
2021/10/30 03:11:04;;;;;;;44.47;28.38;;;;;;;13.70;47.19;100847.31;4957256;28;100779;-80
2021/10/30 03:13:31;;;;;;;45.42;28.20;;;;;;;13.80;47.07;100839.75;4957300;28;96794;-81
2021/10/30 03:15:57;;;;;;;46.50;28.50;;;;;;;13.41;47.96;100855.72;4958885;28;97606;-80
2021/10/30 03:18:24;;;;;;;41.88;27.83;;;;;;;13.34;48.25;100846.31;4949919;28;98595;-80
2021/10/30 03:20:52;;;;;;;46.83;28.52;;;;;;;13.67;47.49;100841.25;4955498;28;99230;-82
2021/10/30 03:23:18;;;;;;;45.00;28.45;;;;;;;13.70;47.25;100844.66;4956543;28;96852;-80
2021/10/30 03:25:44;;;;;;;51.30;29.42;;;;;;;13.45;47.84;100852.88;4956742;28;96848;-80
2021/10/30 03:28:11;;;;;;;46.90;28.67;;;;;;;13.56;47.83;100842.63;4956403;28;99024;-81
2021/10/30 03:30:38;;;;;;;48.03;28.90;;;;;;;13.51;47.62;100841.13;4956541;28;98109;-81
2021/10/30 03:33:04;;;;;;;53.13;29.58;;;;;;;13.46;48.17;100837.78;4960451;28;96850;-80
2021/10/30 03:35:31;;;;;;;53.88;30.52;;;;;;;13.18;48.41;100838.22;4951524;28;98609;-81
2021/10/30 03:37:58;;;;;;;45.83;28.33;;;;;;;13.29;48.33;100838.56;4953684;28;99250;-80
2021/10/30 03:40:25;;;;;;;51.15;28.88;;;;;;;13.43;47.76;100838.81;4949748;28;98167;-80
2021/10/30 03:42:51;;;;;;;44.90;28.42;;;;;;;13.56;47.37;100834.66;4956248;28;97640;-80
2021/10/30 03:45:19;;;;;;;46.42;27.95;;;;;;;13.06;48.63;100834.25;4956344;28;96875;-80
2021/10/30 03:47:46;;;;;;;48.30;28.05;;;;;;;13.37;48.08;100839.09;4952752;28;97877;-82
2021/10/30 03:50:12;;;;;;;44.53;28.70;;;;;;;13.45;47.70;100846.72;4960242;28;101473;-80
2021/10/30 03:52:39;;;;;;;41.67;28.33;;;;;;;13.40;48.05;100838.06;4954628;28;96900;-80
2021/10/30 03:55:07;;;;;;;48.70;29.45;;;;;;;13.11;48.83;100826.09;4955894;28;97113;-81
2021/10/30 03:57:34;;;;;;;45.05;27.73;;;;;;;13.04;48.49;100830.81;4954249;28;97830;-80
2021/10/30 04:00:00;;;;;;;47.35;28.67;;;;;;;13.33;48.09;100826.88;4953626;28;97052;-80
2021/10/30 04:02:27;;;;;;;52.05;27.20;;;;;;;13.27;48.28;100827.16;4954989;28;98276;-78
2021/10/30 04:04:53;;;;;;;49.10;26.95;;;;;;;13.36;48.04;100829.41;4955114;28;96830;-80
2021/10/30 04:07:20;;;;;;;49.88;28.23;;;;;;;13.49;48.05;100837.66;4960713;28;99070;-79
2021/10/30 04:09:46;;;;;;;47.13;28.65;;;;;;;13.51;47.63;100843.78;4954879;28;97811;-80
2021/10/30 04:12:14;;;;;;;43.78;27.75;;;;;;;13.53;47.70;100834.78;4954519;28;98735;-80
2021/10/30 04:14:41;;;;;;;46.35;27.95;;;;;;;13.36;48.13;100832.06;4951024;28;96921;-80
2021/10/30 04:17:08;;;;;;;47.33;28.05;;;;;;;13.40;47.85;100832.78;4947059;28;98951;-79
2021/10/30 04:19:35;;;;;;;41.33;27.20;;;;;;;13.33;47.92;100836.63;4953954;28;99323;-80
2021/10/30 04:22:01;;;;;;;45.30;26.98;;;;;;;13.36;47.96;100831.19;4954261;28;96850;-80
2021/10/30 04:24:28;;;;;;;52.75;26.98;;;;;;;13.23;48.30;100824.72;4951463;28;99161;-80
2021/10/30 04:26:54;;;;;;;47.13;29.20;;;;;;;13.43;47.98;100830.00;4955481;28;97687;-80
2021/10/30 04:29:22;;;;;;;46.35;27.83;;;;;;;13.28;48.22;100820.94;4955872;28;99242;-80
2021/10/30 04:31:51;;;;;;;41.38;26.83;;;;;;;13.15;48.58;100822.41;4963676;28;96969;-80
2021/10/30 04:34:19;;;;;;;46.60;27.05;;;;;;;13.14;48.39;100826.84;4959992;28;96833;-80
2021/10/30 04:36:48;;;;;;;45.80;27.13;;;;;;;13.16;48.47;100825.00;4960581;28;100749;-80
2021/10/30 04:39:15;;;;;;;50.22;28.10;;;;;;;13.07;48.41;100833.31;4967595;28;98349;-79
2021/10/30 04:41:42;;;;;;;43.45;26.33;;;;;;;12.91;49.30;100823.47;4959972;28;96887;-81
2021/10/30 04:44:09;;;;;;;41.17;26.95;;;;;;;13.03;48.87;100823.78;4957289;28;96907;-79
2021/10/30 04:46:38;;;;;;;44.92;26.38;;;;;;;12.93;48.88;100822.47;4958314;28;101591;-81
2021/10/30 04:49:05;;;;;;;44.35;26.73;;;;;;;12.99;48.94;100819.56;4966507;28;98661;-80
2021/10/30 04:51:32;;;;;;;43.92;27.02;;;;;;;12.95;49.11;100820.59;4963910;28;96810;-80
2021/10/30 04:53:58;;;;;;;40.67;26.40;;;;;;;13.13;48.70;100819.81;4968945;28;96878;-80
2021/10/30 04:56:26;;;;;;;42.33;25.55;;;;;;;12.83;49.12;100815.84;4963911;28;98199;-81
2021/10/30 04:58:54;;;;;;;40.38;25.10;;;;;;;13.04;48.86;100809.59;4963440;28;99278;-81
2021/10/30 05:01:21;;;;;;;50.03;26.80;;;;;;;12.91;49.03;100799.59;4950062;28;97216;-81
2021/10/30 05:03:49;;;;;;;43.80;26.08;;;;;;;12.87;49.19;100798.84;4969341;28;97010;-80
2021/10/30 05:06:18;;;;;;;42.75;26.65;;;;;;;12.90;49.06;100796.09;4969528;28;98699;-80
2021/10/30 05:08:45;;;;;;;43.88;25.33;;;;;;;12.94;48.97;100807.41;4971316;28;98048;-81
2021/10/30 05:11:12;;;;;;;42.88;26.23;;;;;;;12.96;48.89;100800.25;4968871;28;96674;-80
2021/10/30 05:13:38;;;;;;;41.45;25.98;;;;;;;12.87;49.40;100796.22;4975568;28;96943;-78
2021/10/30 05:16:06;;;;;;;44.58;25.45;;;;;;;13.13;48.55;100787.13;4982087;28;98057;-80
2021/10/30 05:18:32;;;;;;;43.13;27.13;;;;;;;12.97;48.88;100786.06;4977582;28;100178;-80
2021/10/30 05:21:00;;;;;;;40.03;25.27;;;;;;;12.96;49.01;100779.03;4977813;28;96791;-80
2021/10/30 05:23:26;;;;;;;40.50;26.33;;;;;;;12.97;49.06;100781.63;4973561;28;96506;-81
2021/10/30 05:25:53;;;;;;;38.17;25.48;;;;;;;12.97;48.96;100786.94;4964403;28;99626;-81
2021/10/30 05:28:21;;;;;;;45.00;25.95;;;;;;;13.03;48.64;100784.00;4961344;28;98037;-80
2021/10/30 05:30:49;;;;;;;44.13;26.27;;;;;;;12.83;49.45;100784.03;4956955;28;97117;-81
2021/10/30 05:33:16;;;;;;;40.25;24.98;;;;;;;12.81;49.39;100791.19;4964537;28;96862;-82
2021/10/30 05:35:42;;;;;;;39.72;25.10;;;;;;;13.01;49.02;100785.84;4963316;28;98258;-80
2021/10/30 05:38:11;;;;;;;42.47;26.23;;;;;;;12.71;49.55;100793.38;4956706;28;97979;-80
2021/10/30 05:40:37;;;;;;;44.38;25.10;;;;;;;12.77;49.69;100782.50;4957897;28;97098;-81
2021/10/30 05:43:05;;;;;;;41.40;26.00;;;;;;;12.83;49.01;100789.31;4954483;28;96971;-81
2021/10/30 05:45:32;;;;;;;50.97;26.40;;;;;;;12.90;48.79;100792.56;4953223;28;103400;-80
2021/10/30 05:47:59;;;;;;;48.40;25.25;;;;;;;12.93;48.86;100789.78;4959699;28;101191;-81
2021/10/30 05:50:26;;;;;;;43.83;24.55;;;;;;;13.03;48.98;100783.13;4957798;28;97160;-80
2021/10/30 05:52:53;;;;;;;39.85;25.98;;;;;;;12.90;49.23;100785.47;4956548;28;97217;-80
2021/10/30 05:55:21;;;;;;;37.40;25.13;;;;;;;12.94;48.79;100784.41;4955940;28;100103;-81
2021/10/30 05:57:47;;;;;;;41.50;26.10;;;;;;;12.81;48.91;100785.88;4957549;28;98168;-80
2021/10/30 06:00:14;;;;;;;42.30;25.27;;;;;;;12.78;49.46;100786.03;4955851;28;96742;-81
2021/10/30 06:02:41;;;;;;;41.95;25.13;;;;;;;13.09;48.56;100785.50;4956761;28;96933;-80
2021/10/30 06:05:08;;;;;;;44.47;26.48;;;;;;;13.15;48.36;100788.78;4953508;28;98109;-81
2021/10/30 06:07:34;;;;;;;42.20;25.02;;;;;;;12.97;48.64;100784.28;4948763;28;99362;-80
2021/10/30 06:10:01;;;;;;;42.90;24.17;;;;;;;13.16;48.30;100785.19;4966685;28;98927;-80
2021/10/30 06:12:29;;;;;;;40.13;24.15;;;;;;;13.14;48.39;100784.41;4959063;28;96945;-81
2021/10/30 06:14:55;;;;;;;45.10;25.35;;;;;;;13.12;48.37;100780.97;4958066;28;99041;-81
2021/10/30 06:17:22;;;;;;;38.45;25.92;;;;;;;12.86;49.04;100781.25;4956612;28;98882;-80
2021/10/30 06:19:48;;;;;;;35.13;23.40;;;;;;;12.97;48.61;100784.28;4956165;28;96854;-80
2021/10/30 06:22:15;;;;;;;40.33;24.88;;;;;;;13.03;48.75;100785.78;4955001;28;97691;-81
2021/10/30 06:24:42;;;;;;;45.42;25.42;;;;;;;13.12;48.39;100783.63;4954061;28;97824;-81
2021/10/30 06:27:08;;;;;;;46.15;26.02;;;;;;;13.19;48.37;100789.53;4949936;28;99177;-80
2021/10/30 06:29:36;;;;;;;40.55;25.23;;;;;;;13.06;48.52;100790.97;4950868;28;98711;-81
2021/10/30 06:32:03;;;;;;;37.88;24.45;;;;;;;13.06;48.56;100802.41;4952265;28;97704;-80
2021/10/30 06:34:29;;;;;;;40.67;25.70;;;;;;;13.04;48.74;100799.00;4956531;28;100933;-80
2021/10/30 06:36:56;;;;;;;49.13;26.35;;;;;;;13.19;48.36;100797.47;4956168;28;98147;-80
2021/10/30 06:39:23;;;;;;;42.55;26.02;;;;;;;13.21;48.42;100797.38;4961269;28;96684;-79
2021/10/30 06:41:49;;;;;;;43.72;25.35;;;;;;;13.09;48.61;100802.28;4955194;28;96993;-79
2021/10/30 06:44:16;;;;;;;45.80;26.05;;;;;;;12.88;49.21;100800.59;4949970;28;99438;-80
2021/10/30 06:46:44;;;;;;;45.15;25.50;;;;;;;12.85;49.08;100805.19;4948294;28;98860;-79
2021/10/30 06:49:12;;;;;;;47.50;26.40;;;;;;;12.99;49.15;100794.81;4951781;28;97938;-79
2021/10/30 06:51:39;;;;;;;51.30;25.83;;;;;;;13.13;48.51;100795.94;4951730;28;98476;-80
2021/10/30 06:54:06;;;;;;;39.53;24.55;;;;;;;12.95;48.86;100794.09;4952198;28;99418;-79
2021/10/30 06:56:34;;;;;;;45.47;26.77;;;;;;;13.08;48.69;100789.97;4956312;28;97612;-81
2021/10/30 06:59:02;;;;;;;40.72;23.80;;;;;;;13.11;48.36;100794.28;4953193;28;97245;-80
2021/10/30 07:01:30;;;;;;;44.58;25.50;;;;;;;13.21;48.23;100792.09;4956643;28;98445;-81
2021/10/30 07:03:58;;;;;;;38.22;23.77;;;;;;;13.02;48.68;100795.53;4951822;28;101445;-81
2021/10/30 07:06:25;;;;;;;41.25;24.08;;;;;;;12.99;48.79;100784.22;4956603;28;99395;-79
2021/10/30 07:08:52;;;;;;;42.25;24.13;;;;;;;12.99;48.78;100782.44;4956638;28;96918;-79
2021/10/30 07:11:19;;;;;;;41.25;25.27;;;;;;;13.13;48.31;100777.38;4953899;28;96982;-79
2021/10/30 07:13:45;;;;;;;41.65;25.38;;;;;;;13.21;48.52;100778.81;4965592;28;99364;-81
2021/10/30 07:16:15;;;;;;;38.45;24.25;;;;;;;13.45;48.02;100778.56;4952968;28;98292;-81
2021/10/30 07:18:41;;;;;;;36.65;23.67;;;;;;;13.33;48.17;100780.91;4949209;28;98012;-81
2021/10/30 07:21:10;;;;;;;40.78;24.38;;;;;;;13.43;47.81;100779.56;4952565;28;99258;-82
2021/10/30 07:23:37;;;;;;;42.85;24.48;;;;;;;13.45;48.01;100785.66;4954075;28;99339;-81
2021/10/30 07:26:04;;;;;;;37.80;23.70;;;;;;;13.49;47.82;100779.28;4956588;28;98524;-81
2021/10/30 07:28:31;;;;;;;47.40;24.35;;;;;;;13.61;47.53;100772.50;4961958;28;97422;-80
2021/10/30 07:30:57;;;;;;;44.40;25.05;;;;;;;13.65;47.87;100774.97;4960740;28;96789;-80
2021/10/30 07:33:24;;;;;;;42.20;25.45;;;;;;;13.51;47.97;100766.78;4954731;28;99812;-80
2021/10/30 07:35:51;;;;;;;43.35;23.80;;;;;;;13.79;47.57;100779.59;4949532;28;98618;-81
2021/10/30 07:38:22;;;;;;;39.67;23.63;;;;;;;13.71;47.18;100772.03;4945740;28;98852;-81
2021/10/30 07:40:49;;;;;;;41.25;24.17;;;;;;;13.76;47.21;100775.31;4950029;28;98911;-81
2021/10/30 07:43:15;;;;;;;42.25;23.55;;;;;;;14.06;46.43;100774.72;4953415;28;98891;-80
2021/10/30 07:45:42;;;;;;;40.20;23.85;;;;;;;13.78;46.91;100776.09;4951967;28;101217;-80
2021/10/30 07:48:08;;;;;;;40.80;23.92;;;;;;;13.82;46.70;100774.16;4956301;28;96865;-79
2021/10/30 07:50:36;;;;;;;37.42;24.17;;;;;;;14.03;46.73;100766.94;4954735;28;97201;-79
2021/10/30 07:53:03;;;;;;;43.75;24.02;;;;;;;13.85;46.88;100774.84;4950762;28;100936;-80
2021/10/30 07:55:31;;;;;;;35.88;22.80;;;;;;;13.86;46.69;100779.22;4956076;28;101464;-80
2021/10/30 07:57:58;;;;;;;35.13;23.02;;;;;;;13.89;46.88;100773.78;4961864;28;97606;-81
2021/10/30 08:00:24;;;;;;;40.17;23.15;;;;;;;13.90;46.88;100780.81;4973052;28;97015;-81
2021/10/30 08:02:51;;;;;;;45.63;24.05;;;;;;;14.28;46.21;100770.94;4972686;28;98222;-82
2021/10/30 08:05:17;;;;;;;36.70;23.25;;;;;;;14.11;46.13;100768.25;4974367;28;96952;-79
2021/10/30 08:07:44;;;;;;;34.05;23.15;;;;;;;14.14;46.21;100769.91;4954575;28;97900;-79
2021/10/30 08:10:12;;;;;;;37.20;23.52;;;;;;;14.15;46.20;100767.19;4956796;28;96852;-79
2021/10/30 08:12:40;;;;;;;41.85;23.15;;;;;;;14.55;45.57;100752.75;4956653;28;97913;-79
2021/10/30 08:15:08;;;;;;;47.35;24.38;;;;;;;14.63;45.30;100747.91;4959397;28;98451;-80
2021/10/30 08:17:35;;;;;;;32.42;21.95;;;;;;;14.61;45.14;100752.44;4956157;28;98781;-80
2021/10/30 08:20:04;;;;;;;36.00;23.60;;;;;;;14.33;45.90;100760.94;4956639;28;96982;-80
2021/10/30 08:22:31;;;;;;;37.17;22.92;;;;;;;14.55;45.06;100757.22;4954959;28;99158;-80
2021/10/30 08:24:59;;;;;;;37.70;22.98;;;;;;;14.92;44.67;100750.81;4967750;28;98159;-79
2021/10/30 08:27:26;;;;;;;41.13;25.05;;;;;;;14.86;44.78;100751.16;4966056;28;97038;-79
2021/10/30 08:29:55;;;;;;;35.40;23.38;;;;;;;15.24;43.93;100738.44;4962368;28;96828;-79
2021/10/30 08:32:21;;;;;;;39.00;23.05;;;;;;;15.05;44.28;100736.78;4959399;28;98136;-80
2021/10/30 08:34:48;;;;;;;37.60;22.40;;;;;;;14.97;44.31;100733.66;4959626;28;99515;-81
2021/10/30 08:37:15;;;;;;;37.20;22.15;;;;;;;15.23;43.92;100732.25;4953366;28;97356;-80
2021/10/30 08:39:42;;;;;;;40.83;21.77;;;;;;;15.15;44.13;100731.84;4972792;28;97262;-79
2021/10/30 08:42:08;;;;;;;34.35;22.83;;;;;;;15.09;44.38;100724.19;4958882;28;98129;-80
2021/10/30 08:44:37;;;;;;;32.00;21.63;;;;;;;15.34;43.92;100721.88;4957592;28;100019;-80
2021/10/30 08:47:06;;;;;;;32.90;21.75;;;;;;;15.54;43.35;100719.00;4949338;28;98460;-81
2021/10/30 08:49:35;;;;;;;31.45;21.63;;;;;;;15.83;42.85;100719.13;4950642;28;98601;-81
2021/10/30 08:52:02;;;;;;;35.05;21.85;;;;;;;15.48;43.56;100708.66;4949104;28;101761;-80
2021/10/30 08:54:29;;;;;;;36.40;21.50;;;;;;;15.91;42.89;100711.56;4948326;28;101041;-80
2021/10/30 08:56:56;;;;;;;37.60;22.63;;;;;;;15.84;43.03;100695.06;4947326;28;97851;-82
2021/10/30 08:59:37;;;;;;;35.28;21.88;;;;;;;15.95;42.31;100689.09;4950811;28;98799;-79
2021/10/30 09:02:08;;;;;;;36.70;20.27;;;;;;;16.38;41.66;100683.91;4951485;28;98289;-79
2021/10/30 09:04:34;;;;;;;28.92;19.95;;;;;;;16.41;41.54;100683.72;4953230;28;102526;-79
2021/10/30 09:07:03;;;;;;;35.00;21.02;;;;;;;16.60;40.94;100676.34;4955435;28;97339;-80
2021/10/30 09:09:31;;;;;;;32.67;20.90;;;;;;;16.48;41.15;100679.72;4952483;28;98550;-81
2021/10/30 09:12:00;;;;;;;31.70;20.40;;;;;;;16.62;40.86;100677.09;4949187;28;99681;-80
2021/10/30 09:14:28;;;;;;;30.90;19.83;;;;;;;16.19;41.58;100685.00;4943816;28;98942;-79
2021/10/30 09:17:17;;;;;;;35.42;20.33;;;;;;;16.23;41.58;100680.34;4945795;28;96982;-80
2021/10/30 09:19:46;;;;;;;30.80;21.27;;;;;;;16.09;41.53;100675.81;4946993;28;98551;-81
2021/10/30 09:22:14;;;;;;;27.52;18.30;;;;;;;16.34;41.12;100670.75;4948873;28;101605;-80
2021/10/30 09:24:55;;;;;;;32.65;19.42;;;;;;;16.77;40.43;100668.16;4954609;28;99350;-79
2021/10/30 09:27:24;;;;;;;25.38;18.13;;;;;;;16.77;40.15;100662.81;4959283;28;96830;-79
2021/10/30 09:29:56;;;;;;;30.38;18.63;;;;;;;16.66;40.16;100649.28;4957268;28;97007;-80
2021/10/30 09:32:30;;;;;;;29.60;18.42;;;;;;;16.67;40.12;100653.69;4957597;28;101307;-80
2021/10/30 09:34:57;;;;;;;31.45;19.70;;;;;;;17.06;39.76;100644.97;4960341;28;97913;-80
2021/10/30 09:37:24;;;;;;;29.08;18.98;;;;;;;17.56;38.69;100633.66;4963711;28;96659;-79
2021/10/30 09:40:18;;;;;;;23.67;17.77;;;;;;;17.68;38.43;100630.22;4956911;28;97484;-78
2021/10/30 09:42:47;;;;;;;33.03;18.25;;;;;;;17.71;38.26;100637.19;4948875;28;99232;-78
2021/10/30 09:45:15;;;;;;;27.08;17.52;;;;;;;17.83;38.07;100639.03;4948366;28;99263;-80
2021/10/30 09:47:45;;;;;;;26.80;18.45;;;;;;;18.00;37.54;100637.88;4959286;28;96961;-81
2021/10/30 09:50:28;;;;;;;24.23;18.17;;;;;;;18.20;37.35;100632.88;4954910;28;97962;-80
2021/10/30 09:52:55;;;;;;;30.33;17.00;;;;;;;18.19;37.29;100630.31;4953754;28;101106;-81
2021/10/30 09:55:27;;;;;;;29.95;17.02;;;;;;;18.02;37.54;100649.34;4957579;28;97991;-81
2021/10/30 09:58:05;;;;;;;27.90;17.70;;;;;;;18.08;37.27;100635.53;4959243;28;97629;-81
2021/10/30 10:00:33;;;;;;;24.83;16.80;;;;;;;18.15;37.15;100631.50;4951737;28;97774;-81
2021/10/30 10:03:08;;;;;;;26.42;17.42;;;;;;;18.30;36.97;100627.78;4952079;28;99166;-81
2021/10/30 10:05:37;;;;;;;31.65;18.20;;;;;;;18.49;36.83;100622.84;4950081;28;101904;-81
2021/10/30 10:08:05;;;;;;;30.30;17.95;;;;;;;18.19;37.07;100625.81;4956503;28;96773;-81
2021/10/30 10:10:32;;;;;;;27.77;17.00;;;;;;;17.97;37.58;100606.88;4959933;28;97215;-82
2021/10/30 10:12:59;;;;;;;27.98;17.83;;;;;;;18.23;37.01;100613.97;4952767;28;99386;-80
2021/10/30 10:15:26;;;;;;;28.88;18.60;;;;;;;18.00;37.56;100608.47;4953749;28;100305;-81
2021/10/30 10:17:54;;;;;;;27.80;18.42;;;;;;;18.24;37.31;100604.13;4957079;28;97875;-83
2021/10/30 10:20:25;;;;;;;28.45;17.55;;;;;;;18.43;37.13;100593.84;4959009;28;98351;-82
2021/10/30 10:22:52;;;;;;;26.77;17.23;;;;;;;18.62;37.11;100593.44;4956833;28;97899;-80
2021/10/30 10:25:31;;;;;;;31.15;17.33;;;;;;;18.43;36.97;100585.81;4959653;28;100986;-80
2021/10/30 10:28:26;;;;;;;22.63;16.58;;;;;;;18.84;36.92;100592.75;4971947;28;96956;-83
2021/10/30 10:31:10;;;;;;;25.58;17.70;;;;;;;18.37;37.15;100586.25;4972048;28;96801;-82
2021/10/30 10:36:29;;;;;;;24.20;17.05;;;;;;;18.72;37.05;100586.44;4972736;28;96444;-81
2021/10/30 10:39:21;;;;;;;24.35;17.55;;;;;;;18.45;37.42;100586.53;4971309;28;96983;-80
2021/10/30 10:42:03;;;;;;;29.45;17.58;;;;;;;18.53;37.05;100578.84;4970229;28;96838;-80
2021/10/30 10:45:03;;;;;;;29.23;17.13;;;;;;;18.34;37.44;100573.09;4960685;28;99355;-77
2021/10/30 10:48:02;;;;;;;27.60;17.05;;;;;;;18.17;37.61;100566.25;4958711;28;99603;-80
2021/10/30 10:50:36;;;;;;;24.75;16.63;;;;;;;18.43;37.07;100559.06;4967411;28;96577;-83
2021/10/30 10:53:21;;;;;;;29.08;16.80;;;;;;;18.52;37.06;100550.38;4966321;28;96840;-79
2021/10/30 10:56:15;;;;;;;25.90;16.33;;;;;;;18.69;36.80;100539.38;4969627;28;98984;-80
2021/10/30 10:59:10;;;;;;;24.40;16.23;;;;;;;18.59;36.85;100540.13;4965947;28;99032;-79
2021/10/30 11:01:41;;;;;;;25.85;16.70;;;;;;;18.57;37.29;100542.06;4965109;28;96761;-80
2021/10/30 11:04:13;;;;;;;25.27;16.60;;;;;;;18.76;36.66;100528.22;4965758;28;96817;-81
2021/10/30 11:06:45;;;;;;;26.85;16.85;;;;;;;18.30;37.37;100518.97;4962230;28;96875;-80
2021/10/30 11:09:15;;;;;;;21.30;15.57;;;;;;;18.43;37.21;100515.41;4972100;28;100055;-81
2021/10/30 11:11:42;;;;;;;27.23;15.73;;;;;;;18.64;36.97;100517.41;4969689;28;96510;-79
2021/10/30 11:14:12;;;;;;;25.30;16.50;;;;;;;18.65;36.48;100508.41;4967614;28;96944;-78
2021/10/30 11:16:42;;;;;;;22.73;15.48;;;;;;;18.52;36.92;100510.22;4968915;28;98922;-79
2021/10/30 11:19:19;;;;;;;23.27;15.55;;;;;;;18.62;36.80;100511.34;4971688;28;97085;-80